| Date | Time | Temp. (oF) | Dew Point (oF) | Rel. Hum. (%) | Press. (in.) | Wind Dir. | Wind Speed (mph) | Hourly Rainfall (in.) |
|
|---|---|---|---|---|---|---|---|---|---|
| 1 | 04/17 | 00:00 | 58 | 49 | 72 | 30.21 | S | 4 | 0.00 |
| 2 | 04/16 | 23:00 | 58 | 43 | 58 | 30.22 | SE | 0 | 0.00 |
| 3 | 04/16 | 22:00 | 59 | 41 | 53 | 30.22 | SSE | 0 | 0.00 |
| 4 | 04/16 | 21:00 | 62 | 46 | 56 | 30.23 | SSE | 8 | 0.00 |
| 5 | 04/16 | 20:00 | 63 | 43 | 50 | 30.22 | SSW | 8 | 0.00 |
| 6 | 04/16 | 19:00 | 64 | 42 | 46 | 30.23 | S | 10 | 0.00 |
| 7 | 04/16 | 18:00 | 65 | 41 | 42 | 30.24 | S | 8 | 0.00 |
| 8 | 04/16 | 17:00 | 68 | 36 | 32 | 30.25 | S | 0 | 0.00 |
| 9 | 04/16 | 16:00 | 68 | 31 | 26 | 30.28 | SSW | 5 | 0.00 |
| 10 | 04/16 | 15:00 | 67 | 31 | 27 | 30.32 | SSW | 3 | 0.00 |
| 11 | 04/16 | 14:00 | 67 | 34 | 30 | 30.34 | SSE | 6 | 0.00 |
| 12 | 04/16 | 13:00 | 66 | 32 | 29 | 30.36 | S | 0 | 0.00 |
| 13 | 04/16 | 12:00 | 65 | 34 | 33 | 30.39 | ESE | 5 | 0.00 |
| 14 | 04/16 | 11:00 | 62 | 32 | 33 | 30.41 | SE | 10 | 0.00 |
| 15 | 04/16 | 10:00 | 58 | 31 | 36 | 30.42 | SSE | 7 | 0.00 |
| 16 | 04/16 | 09:00 | 53 | 35 | 51 | 30.42 | ESE | 7 | 0.00 |
| 17 | 04/16 | 08:00 | 42 | 39 | 90 | 30.42 | SSW | 0 | 0.00 |
| 18 | 04/16 | 07:00 | 40 | 36 | 87 | 30.40 | W | 0 | 0.00 |
| 19 | 04/16 | 06:00 | 41 | 37 | 86 | 30.39 | ESE | 0 | 0.00 |
| 20 | 04/16 | 05:00 | 42 | 35 | 79 | 30.38 | NNE | 0 | 0.00 |
| 21 | 04/16 | 04:00 | 46 | 35 | 67 | 30.38 | WNW | 0 | 0.00 |
| 22 | 04/16 | 03:00 | 45 | 35 | 69 | 30.37 | N | 0 | 0.00 |
| 23 | 04/16 | 02:00 | 47 | 34 | 61 | 30.36 | SSE | 0 | 0.00 |
| 24 | 04/16 | 01:00 | 51 | 29 | 44 | 30.36 | ESE | 0 | 0.00 |